Darstellungsparameter: Aktuell verwendete Einstellungen:
Skalierung der Graphiken ... ?
xyx+y,   Skalierungsfaktor:      Skalierung: Modus: x, Faktor: 1
Darstellungszeitraum ... ?
Vom - - bis: - -   Zeitraum: 12.06.2010 - 18.06.2010
Min/Max/Avg-Anzeige ... ?
Zeige MMA aktuell
Zeige MMA Monat
Zeige MMA alles
Zeige --A aktuell
Zeige --A Monat
Zeige --A alles
Keine MMA-Anzeige
MMA:
Average (ber die Originaldaten)
MMA-Basis: 12.06.2010 - 18.06.2010
Quicknavigation für Darstellung... ?
Tage:      1T, 2T, 3T, 5T -1T -2T -3T -5T +1T +2T +3T +5T
Wochen: 1W, 2W, 3W -1W -2W -3W +1W +2W +3W
Monate: 1M, 3M, 6M -1M -3M -6M +1M +3M +6M
Jahre:    1J, 3J, 5J, 10J -1J -3J -5J -10J +1J +3J +5J +10J
Nutze für die Darstellung ... ?
Originaldaten oder Mittelwerte auf ...
Stundenbasis Tagesbasis Wochenbasis
Monatsbasis Jahresbasis      Datenbasis: Original-Daten
Darstellen als:
Statistik (Auto) Statistik J:M      Darstellung:
Zur Graphik,    zurück zur Übersicht aller Sensoren.
 
Tabellarische Datenbersicht: ?
 
Sensor: Nr:Datum:Temp:Abs-Feuchte:Windchill:Wind:
Aussen-T/F 1 12-06-2010 00:08:01 22.2 C 8.05 g/m*3 22.2 C 0 km/h
2 12-06-2010 00:20:01 22.1 C 8.78 g/m*3 22.1 C 0 km/h
3 12-06-2010 00:32:01 21.9 C 9.07 g/m*3 21.9 C 0 km/h
4 12-06-2010 00:44:01 21.8 C 9.02 g/m*3 21.8 C 0 km/h
5 12-06-2010 00:56:01 21.5 C 9.43 g/m*3 21.5 C 0 km/h
6 12-06-2010 01:08:01 21.2 C 9.64 g/m*3 21.2 C 0 km/h
7 12-06-2010 01:20:01 21.2 C 9.82 g/m*3 21.2 C 0 km/h
8 12-06-2010 01:32:01 20.8 C 9.78 g/m*3 20.8 C 0 km/h
9 12-06-2010 01:44:01 20.7 C 9.72 g/m*3 20.7 C 0 km/h
10 12-06-2010 01:56:01 20.8 C 9.96 g/m*3 20.8 C 0 km/h
11 12-06-2010 02:08:01 20.5 C 9.79 g/m*3 20.5 C 0 km/h
12 12-06-2010 02:20:02 20.2 C 9.97 g/m*3 20.2 C 0 km/h
13 12-06-2010 02:32:01 20.3 C 10.2 g/m*3 20.3 C 0 km/h
14 12-06-2010 02:44:01 20.1 C 9.91 g/m*3 20.1 C 0 km/h
15 12-06-2010 02:56:03 20.1 C 10.08 g/m*3 20.1 C 0 km/h
16 12-06-2010 03:08:03 20 C 9.85 g/m*3 20 C 0 km/h
17 12-06-2010 03:20:03 19.8 C 10.08 g/m*3 19.8 C 0 km/h
18 12-06-2010 03:32:02 19.7 C 10.19 g/m*3 19.7 C 0 km/h
19 12-06-2010 03:44:02 19.6 C 10.3 g/m*3 19.6 C 0 km/h
20 12-06-2010 03:56:02 19.6 C 10.3 g/m*3 19.6 C 0 km/h
21 12-06-2010 04:08:02 19.4 C 10.18 g/m*3 19.4 C 0 km/h
22 12-06-2010 04:20:01 19.4 C 10.34 g/m*3 19.4 C 0 km/h
23 12-06-2010 04:32:02 19.4 C 10.68 g/m*3 19.4 C 0 km/h
24 12-06-2010 04:44:02 19.3 C 10.62 g/m*3 19.3 C 0 km/h
25 12-06-2010 04:56:02 19.1 C 10.98 g/m*3 19.1 C 0 km/h
Sensor: Nr:Datum:Temp:Abs-Feuchte:Windchill:Wind:
Aussen-T/F 26 12-06-2010 05:08:02 18.7 C 11.21 g/m*3 18.7 C 0 km/h
27 12-06-2010 05:20:01 18.8 C 11.27 g/m*3 18.8 C 0 km/h
28 12-06-2010 05:32:02 18.7 C 11.21 g/m*3 18.7 C 0 km/h
29 12-06-2010 05:44:02 18.7 C 11.05 g/m*3 18.7 C 0 km/h
30 12-06-2010 05:56:02 18.7 C 10.89 g/m*3 18.7 C 0 km/h
31 12-06-2010 06:08:02 18.6 C 10.66 g/m*3 18.6 C 0 km/h
32 12-06-2010 06:20:02 18.7 C 10.89 g/m*3 18.7 C 0 km/h
33 12-06-2010 06:32:02 18.9 C 11.02 g/m*3 18.9 C 0 km/h
34 12-06-2010 06:44:02 18.4 C 11.32 g/m*3 18.4 C 0 km/h
35 12-06-2010 06:56:02 18.3 C 11.88 g/m*3 18.3 C 0 km/h
36 12-06-2010 07:08:02 18.3 C 12.2 g/m*3 18.3 C 0 km/h
37 12-06-2010 07:20:02 18.2 C 11.97 g/m*3 18.2 C 0 km/h
38 12-06-2010 07:32:01 18.5 C 12.18 g/m*3 18.5 C 0 km/h
39 12-06-2010 07:44:01 18.3 C 12.04 g/m*3 18.3 C 0 km/h
40 12-06-2010 07:56:02 18.6 C 12.41 g/m*3 18.6 C 0 km/h
41 12-06-2010 08:08:01 18.6 C 12.41 g/m*3 18.6 C 0 km/h
42 12-06-2010 08:20:02 18.5 C 12.18 g/m*3 18.5 C 0 km/h
43 12-06-2010 08:32:01 18.9 C 12.64 g/m*3 18.9 C 0 km/h
44 12-06-2010 08:44:01 18.6 C 12.41 g/m*3 18.6 C 0 km/h
45 12-06-2010 08:56:02 19.3 C 12.44 g/m*3 19.3 C 0 km/h
46 12-06-2010 09:08:02 19.1 C 12.13 g/m*3 19.1 C 0 km/h
47 12-06-2010 09:20:02 19.1 C 11.97 g/m*3 19.1 C 0 km/h
48 12-06-2010 09:32:02 19 C 11.57 g/m*3 19 C 0 km/h
49 12-06-2010 09:44:02 19.6 C 11.31 g/m*3 19.6 C 0 km/h
50 12-06-2010 09:56:02 19.6 C 10.97 g/m*3 19.6 C 0 km/h
Sensor: Nr:Datum:Temp:Abs-Feuchte:Windchill:Wind:
Aussen-T/F 51 12-06-2010 10:08:01 20 C 10.89 g/m*3 20 C 0 km/h
52 12-06-2010 10:20:02 19.6 C 10.3 g/m*3 19.6 C 0 km/h
53 12-06-2010 10:32:02 20.3 C 10.55 g/m*3 20.3 C 0 km/h
54 12-06-2010 10:44:02 20.5 C 10.14 g/m*3 20.5 C 0 km/h
55 12-06-2010 10:56:02 21.3 C 10.25 g/m*3 21.3 C 0 km/h
56 12-06-2010 11:08:02 21.2 C 10.19 g/m*3 21.2 C 0 km/h
57 12-06-2010 11:20:02 22.1 C 9.96 g/m*3 22.1 C 0 km/h
58 12-06-2010 11:32:02 22.8 C 9.35 g/m*3 22.8 C 0 km/h
59 12-06-2010 11:44:03 23.2 C 9.36 g/m*3 23.2 C 0 km/h
60 12-06-2010 11:56:02 22.9 C 8.99 g/m*3 22.9 C 0 km/h
61 12-06-2010 12:08:01 23 C 8.43 g/m*3 23 C 0 km/h
62 12-06-2010 12:20:01 23.6 C 8.51 g/m*3 23.6 C 0 km/h
63 12-06-2010 12:32:02 23.6 C 8.72 g/m*3 23.6 C 0 km/h
64 12-06-2010 12:44:02 22.9 C 8.99 g/m*3 22.9 C 0 km/h
65 12-06-2010 12:56:02 23.4 C 8.83 g/m*3 23.4 C 0 km/h
66 12-06-2010 13:08:01 25.2 C 8.38 g/m*3 25.2 C 0 km/h
67 12-06-2010 13:20:02 23.8 C 8.82 g/m*3 23.8 C 0 km/h
68 12-06-2010 13:32:02 24.4 C 8.23 g/m*3 24.4 C 0 km/h
69 12-06-2010 13:44:02 23.2 C 8.52 g/m*3 23.2 C 0 km/h
70 12-06-2010 13:56:02 24.2 C 8.36 g/m*3 24.2 C 0 km/h
71 12-06-2010 14:08:01 24.6 C 8.33 g/m*3 24.6 C 0 km/h
72 12-06-2010 14:20:01 24 C 8.27 g/m*3 24 C 0 km/h
73 12-06-2010 14:32:02 23.9 C 8.65 g/m*3 23.9 C 0 km/h
74 12-06-2010 14:44:02 24 C 8.49 g/m*3 24 C 0 km/h
75 12-06-2010 14:56:02 25.9 C 8.47 g/m*3 25.9 C 0 km/h
Sensor: Nr:Datum:Temp:Abs-Feuchte:Windchill:Wind:
Aussen-T/F 76 12-06-2010 15:08:02 25.2 C 8.15 g/m*3 25.2 C 0 km/h
77 12-06-2010 15:20:02 24.8 C 8.19 g/m*3 24.8 C 0 km/h
78 12-06-2010 15:32:02 23.9 C 8.87 g/m*3 23.9 C 0 km/h
79 12-06-2010 15:44:02 21.8 C 9.98 g/m*3 21.8 C 0 km/h
80 12-06-2010 15:56:02 19.2 C 10.06 g/m*3 19.2 C 0 km/h
81 12-06-2010 16:08:03 18.9 C 10.37 g/m*3 18.9 C 0 km/h
82 12-06-2010 16:20:02 17.9 C 9.92 g/m*3 17.9 C 0 km/h
83 12-06-2010 16:32:02 17.4 C 10.37 g/m*3 17.4 C 0 km/h
84 12-06-2010 16:44:02 15.9 C 10.16 g/m*3 15.9 C 0 km/h
85 12-06-2010 16:56:01 15.1 C 10.19 g/m*3 15.1 C 0 km/h
86 12-06-2010 17:08:02 15.2 C 10.51 g/m*3 15.2 C 0 km/h
87 12-06-2010 17:20:01 14.2 C 9.65 g/m*3 14.2 C 0 km/h
88 12-06-2010 17:32:01 13.7 C 9.47 g/m*3 13.7 C 0 km/h
89 12-06-2010 17:44:01 13.6 C 9.53 g/m*3 13.6 C 0 km/h
90 12-06-2010 17:56:01 14.4 C 10.14 g/m*3 14.4 C 0 km/h
91 12-06-2010 18:08:02 14.7 C 10.32 g/m*3 14.7 C 0 km/h
92 12-06-2010 18:20:02 14.6 C 10.01 g/m*3 14.6 C 0 km/h
93 12-06-2010 18:32:01 14.8 C 10.26 g/m*3 14.8 C 0 km/h
94 12-06-2010 18:44:01 14.4 C 9.89 g/m*3 14.4 C 0 km/h
95 12-06-2010 18:56:01 14.6 C 10.14 g/m*3 14.6 C 0 km/h
96 12-06-2010 19:08:01 14.6 C 9.89 g/m*3 14.6 C 0 km/h
97 12-06-2010 19:20:02 14.4 C 9.64 g/m*3 14.4 C 0 km/h
98 12-06-2010 19:32:01 14.7 C 9.69 g/m*3 14.7 C 0 km/h
99 12-06-2010 19:44:01 15 C 9.75 g/m*3 15 C 0 km/h
100 12-06-2010 19:56:02 15.4 C 9.99 g/m*3 15.4 C 0 km/h
Sensor: Nr:Datum:Temp:Abs-Feuchte:Windchill:Wind:
Aussen-T/F 101 12-06-2010 20:08:01 15.3 C 9.66 g/m*3 15.3 C 0 km/h
102 12-06-2010 20:20:02 15.3 C 9.53 g/m*3 15.3 C 0 km/h
103 12-06-2010 20:32:01 15.3 C 9.53 g/m*3 15.3 C 0 km/h
104 12-06-2010 20:44:01 15.4 C 9.46 g/m*3 15.4 C 0 km/h
105 12-06-2010 20:56:02 15.4 C 9.46 g/m*3 15.4 C 0 km/h
106 12-06-2010 21:08:02 15.2 C 9.35 g/m*3 15.2 C 0 km/h
107 12-06-2010 21:20:02 15.1 C 9.29 g/m*3 15.1 C 0 km/h
108 12-06-2010 21:32:02 15 C 9.36 g/m*3 15 C 0 km/h
109 12-06-2010 21:44:02 14.9 C 9.56 g/m*3 14.9 C 0 km/h
110 12-06-2010 21:56:02 14.7 C 9.44 g/m*3 14.7 C 0 km/h
111 12-06-2010 22:08:01 14.7 C 9.44 g/m*3 14.7 C 0 km/h
112 12-06-2010 22:20:02 14.7 C 9.57 g/m*3 14.7 C 0 km/h
113 12-06-2010 22:32:01 14.6 C 9.51 g/m*3 14.6 C 0 km/h
114 12-06-2010 22:44:01 14.4 C 9.39 g/m*3 14.4 C 0 km/h
115 12-06-2010 22:56:02 14.1 C 9.22 g/m*3 14.1 C 0 km/h
116 12-06-2010 23:09:03 13.6 C 9.06 g/m*3 13.6 C 0 km/h
117 12-06-2010 23:21:03 13.4 C 9.07 g/m*3 13.4 C 0 km/h
118 12-06-2010 23:33:03 13.2 C 8.96 g/m*3 13.2 C 0 km/h
119 12-06-2010 23:45:03 13.2 C 8.96 g/m*3 13.2 C 0 km/h
120 12-06-2010 23:57:03 13 C 8.85 g/m*3 13 C 0 km/h
121 13-06-2010 00:09:03 12.8 C 8.85 g/m*3 12.8 C 0 km/h
122 13-06-2010 00:21:03 12.6 C 8.85 g/m*3 12.6 C 0 km/h
123 13-06-2010 00:33:03 12.6 C 8.85 g/m*3 12.6 C 0 km/h
124 13-06-2010 00:45:03 12.6 C 8.96 g/m*3 12.6 C 0 km/h
125 13-06-2010 00:57:03 12.8 C 9.07 g/m*3 12.8 C 0 km/h
Sensor: Nr:Datum:Temp:Abs-Feuchte:Windchill:Wind:
Aussen-T/F 126 13-06-2010 01:09:03 13.1 C 9.24 g/m*3 13.1 C 0 km/h
127 13-06-2010 01:21:03 13.3 C 9.47 g/m*3 13.3 C 0 km/h
128 13-06-2010 01:33:03 13.4 C 9.53 g/m*3 13.4 C 0 km/h
129 13-06-2010 01:45:04 13.4 C 9.42 g/m*3 13.4 C 0 km/h
130 13-06-2010 01:57:04 13.3 C 9.36 g/m*3 13.3 C 0 km/h
131 13-06-2010 02:09:04 13.5 C 9.59 g/m*3 13.5 C 0 km/h
132 13-06-2010 02:21:04 13.3 C 9.47 g/m*3 13.3 C 0 km/h
133 13-06-2010 02:33:04 13.2 C 9.42 g/m*3 13.2 C 0 km/h
134 13-06-2010 02:45:04 13 C 9.41 g/m*3 13 C 0 km/h
135 13-06-2010 02:57:04 12.7 C 9.46 g/m*3 12.7 C 0 km/h
136 13-06-2010 03:09:04 12.5 C 9.46 g/m*3 12.5 C 0 km/h
137 13-06-2010 03:21:04 12.4 C 9.4 g/m*3 12.4 C 0 km/h
138 13-06-2010 03:33:04 12.2 C 9.28 g/m*3 12.2 C 0 km/h
139 13-06-2010 03:45:04 11.9 C 9.21 g/m*3 11.9 C 0 km/h
140 13-06-2010 03:57:04 11.8 C 9.16 g/m*3 11.8 C 0 km/h
141 13-06-2010 04:09:04 11.5 C 8.99 g/m*3 11.5 C 0 km/h
142 13-06-2010 04:21:04 11.4 C 8.83 g/m*3 11.4 C 0 km/h
143 13-06-2010 04:33:04 11.4 C 8.72 g/m*3 11.4 C 0 km/h
144 13-06-2010 04:45:04 11.2 C 8.51 g/m*3 11.2 C 0 km/h
145 13-06-2010 04:57:04 11.1 C 8.46 g/m*3 11.1 C 0 km/h
146 13-06-2010 05:09:04 11 C 8.51 g/m*3 11 C 0 km/h
147 13-06-2010 05:21:04 11 C 8.41 g/m*3 11 C 0 km/h
148 13-06-2010 05:33:04 10.8 C 8.3 g/m*3 10.8 C 0 km/h
149 13-06-2010 05:45:04 10.7 C 8.25 g/m*3 10.7 C 0 km/h
150 13-06-2010 05:57:04 10.6 C 8.2 g/m*3 10.6 C 0 km/h
Sensor: Nr:Datum:Temp:Abs-Feuchte:Windchill:Wind:
Aussen-T/F 151 13-06-2010 06:09:05 10.5 C 8.15 g/m*3 10.5 C 0 km/h
152 13-06-2010 06:21:05 10.5 C 8.24 g/m*3 10.5 C 0 km/h
153 13-06-2010 06:33:05 10.5 C 8.24 g/m*3 10.5 C 0 km/h
154 13-06-2010 06:45:05 10.5 C 8.24 g/m*3 10.5 C 0 km/h
155 13-06-2010 06:57:05 10.5 C 8.24 g/m*3 10.5 C 0 km/h
156 13-06-2010 07:09:05 10.7 C 8.45 g/m*3 10.7 C 0 km/h
157 13-06-2010 07:21:05 11 C 8.61 g/m*3 11 C 0 km/h
158 13-06-2010 07:33:05 11.4 C 8.72 g/m*3 11.4 C 0 km/h
159 13-06-2010 07:45:02 11.7 C 8.79 g/m*3 11.7 C 0 km/h
160 13-06-2010 07:57:02 12.1 C 8.69 g/m*3 12.1 C 0 km/h
161 13-06-2010 08:09:02 12.6 C 8.63 g/m*3 12.6 C 0 km/h
162 13-06-2010 08:21:02 12.8 C 8.29 g/m*3 12.8 C 0 km/h
163 13-06-2010 08:33:02 13.2 C 7.92 g/m*3 13.2 C 0 km/h
164 13-06-2010 08:45:02 13.5 C 7.95 g/m*3 13.5 C 0 km/h
165 13-06-2010 08:57:02 13.7 C 8.05 g/m*3 13.7 C 0 km/h
166 13-06-2010 09:09:01 14.1 C 8.01 g/m*3 14.1 C 0 km/h
167 13-06-2010 09:21:02 15 C 7.95 g/m*3 15 C 0 km/h
168 13-06-2010 09:33:02 15.7 C 7.76 g/m*3 15.7 C 0 km/h
169 13-06-2010 09:45:02 16.7 C 7.39 g/m*3 16.7 C 0 km/h
170 13-06-2010 09:57:02 17.7 C 6.79 g/m*3 17.7 C 0 km/h
171 13-06-2010 10:09:02 18.9 C 6.48 g/m*3 18.9 C 0 km/h
172 13-06-2010 10:21:02 19.5 C 6.38 g/m*3 19.5 C 0 km/h
173 13-06-2010 10:33:02 16.8 C 6.43 g/m*3 16.8 C 0 km/h
174 13-06-2010 10:45:02 16.2 C 5.79 g/m*3 16.2 C 0 km/h
175 13-06-2010 10:57:02 17.4 C 6.37 g/m*3 17.4 C 0 km/h
Sensor: Nr:Datum:Temp:Abs-Feuchte:Windchill:Wind:
Aussen-T/F 176 13-06-2010 11:09:02 18.5 C 5.85 g/m*3 18.5 C 0 km/h
177 13-06-2010 11:21:02 19 C 5.87 g/m*3 19 C 0 km/h
178 13-06-2010 11:33:02 19.5 C 6.04 g/m*3 19.5 C 0 km/h
179 13-06-2010 11:45:02 19.8 C 5.64 g/m*3 19.8 C 0 km/h
180 13-06-2010 11:57:02 20.9 C 6.19 g/m*3 20.9 C 0 km/h
181 13-06-2010 12:09:02 21.3 C 5.59 g/m*3 21.3 C 0 km/h
182 13-06-2010 12:21:02 22.4 C 5.36 g/m*3 22.4 C 0 km/h
183 13-06-2010 12:33:02 23.8 C 5.38 g/m*3 23.8 C 0 km/h
184 13-06-2010 12:45:02 23.1 C 5.17 g/m*3 23.1 C 0 km/h
185 13-06-2010 12:57:02 23.6 C 4.89 g/m*3 23.6 C 0 km/h
186 13-06-2010 13:09:02 23.4 C 5.47 g/m*3 23.4 C 0 km/h
187 13-06-2010 13:21:02 24.9 C 4.81 g/m*3 24.9 C 0 km/h
188 13-06-2010 13:33:02 25.4 C 4.71 g/m*3 25.4 C 0 km/h
189 13-06-2010 13:45:02 25.1 C 4.63 g/m*3 25.1 C 0 km/h
190 13-06-2010 13:57:02 25.2 C 4.66 g/m*3 25.2 C 0 km/h
191 13-06-2010 14:09:02 24.8 C 4.78 g/m*3 24.8 C 0 km/h
192 13-06-2010 14:21:02 24.8 C 5.01 g/m*3 24.8 C 0 km/h
193 13-06-2010 14:33:01 23.9 C 4.98 g/m*3 23.9 C 0 km/h
194 13-06-2010 14:45:02 22.6 C 4.62 g/m*3 22.6 C 0 km/h
195 13-06-2010 14:57:02 24.5 C 5.15 g/m*3 24.5 C 0 km/h
196 13-06-2010 15:09:01 25.1 C 5.32 g/m*3 25.1 C 0 km/h
197 13-06-2010 15:21:02 25.8 C 5.06 g/m*3 25.8 C 0 km/h
198 13-06-2010 15:33:01 24.1 C 4.38 g/m*3 24.1 C 0 km/h
199 13-06-2010 15:45:02 24.3 C 4.43 g/m*3 24.3 C 0 km/h
200 13-06-2010 15:57:02 23.8 C 4.3 g/m*3 23.8 C 0 km/h
Sensor: Nr:Datum:Temp:Abs-Feuchte:Windchill:Wind:
Aussen-T/F 201 13-06-2010 16:09:02 24.3 C 4.43 g/m*3 24.3 C 0 km/h
202 13-06-2010 16:21:02 24.6 C 4.5 g/m*3 24.6 C 0 km/h
203 13-06-2010 16:33:02 24.2 C 4.4 g/m*3 24.2 C 0 km/h
204 13-06-2010 16:45:02 26 C 4.87 g/m*3 26 C 0 km/h
205 13-06-2010 16:57:02 26 C 4.87 g/m*3 26 C 0 km/h
206 13-06-2010 17:09:01 26.1 C 4.9 g/m*3 26.1 C 0 km/h
207 13-06-2010 17:21:02 26.3 C 4.95 g/m*3 26.3 C 0 km/h
208 13-06-2010 17:33:02 26 C 4.87 g/m*3 26 C 0 km/h
209 13-06-2010 17:45:02 26.5 C 5.01 g/m*3 26.5 C 0 km/h
210 13-06-2010 17:57:02 25.4 C 4.71 g/m*3 25.4 C 0 km/h
211 13-06-2010 18:09:02 26.5 C 5.01 g/m*3 26.5 C 0 km/h
212 13-06-2010 18:21:02 27.1 C 5.18 g/m*3 27.1 C 0 km/h
213 13-06-2010 18:33:02 25.8 C 4.82 g/m*3 25.8 C 0 km/h
214 13-06-2010 18:45:01 26.5 C 5.01 g/m*3 26.5 C 0 km/h
215 13-06-2010 18:57:01 26.3 C 4.95 g/m*3 26.3 C 0 km/h
216 13-06-2010 19:09:02 26.3 C 4.95 g/m*3 26.3 C 0 km/h
217 13-06-2010 19:21:01 25.9 C 4.84 g/m*3 25.9 C 0 km/h
218 13-06-2010 19:33:01 25.4 C 4.71 g/m*3 25.4 C 0 km/h
219 13-06-2010 19:45:01 24.1 C 4.38 g/m*3 24.1 C 0 km/h
220 13-06-2010 19:57:01 23.6 C 5.32 g/m*3 23.6 C 0 km/h
221 13-06-2010 20:09:02 24.1 C 4.81 g/m*3 24.1 C 0 km/h
222 13-06-2010 20:21:01 24.7 C 5.21 g/m*3 24.7 C 0 km/h
223 13-06-2010 20:33:01 24.5 C 4.92 g/m*3 24.5 C 0 km/h
224 13-06-2010 20:45:01 23.4 C 5.05 g/m*3 23.4 C 0 km/h
225 13-06-2010 20:57:01 22.8 C 6.1 g/m*3 22.8 C 0 km/h
Sensor: Nr:Datum:Temp:Abs-Feuchte:Windchill:Wind:
Aussen-T/F 226 13-06-2010 21:09:02 21.8 C 6.33 g/m*3 21.8 C 0 km/h
227 13-06-2010 21:21:01 20.6 C 6.44 g/m*3 20.6 C 0 km/h
228 13-06-2010 21:33:01 19.3 C 6.3 g/m*3 19.3 C 0 km/h
229 13-06-2010 21:45:02 18.6 C 6.37 g/m*3 18.6 C 0 km/h
230 13-06-2010 21:57:02 17.9 C 6.26 g/m*3 17.9 C 0 km/h
231 13-06-2010 22:09:02 18.1 C 6.33 g/m*3 18.1 C 0 km/h
232 13-06-2010 22:21:02 18.1 C 6.18 g/m*3 18.1 C 0 km/h
233 13-06-2010 22:34:02 17.7 C 6.49 g/m*3 17.7 C 0 km/h
234 13-06-2010 22:46:02 17.3 C 6.63 g/m*3 17.3 C 0 km/h
235 13-06-2010 22:58:02 17 C 6.66 g/m*3 17 C 0 km/h
236 13-06-2010 23:10:02 16.7 C 6.68 g/m*3 16.7 C 0 km/h
237 13-06-2010 23:22:02 16.6 C 6.92 g/m*3 16.6 C 0 km/h
238 13-06-2010 23:34:02 16.2 C 6.9 g/m*3 16.2 C 0 km/h
239 13-06-2010 23:46:02 16 C 7.08 g/m*3 16 C 0 km/h
240 13-06-2010 23:58:02 15.9 C 7.04 g/m*3 15.9 C 0 km/h
241 14-06-2010 00:10:02 15.7 C 7.36 g/m*3 15.7 C 0 km/h
242 14-06-2010 00:22:02 15.4 C 7.49 g/m*3 15.4 C 0 km/h
243 14-06-2010 00:34:02 15.4 C 7.49 g/m*3 15.4 C 0 km/h
244 14-06-2010 00:46:02 15.4 C 7.62 g/m*3 15.4 C 0 km/h
245 14-06-2010 00:58:02 15.3 C 7.44 g/m*3 15.3 C 0 km/h
246 14-06-2010 01:10:02 14.9 C 7.52 g/m*3 14.9 C 0 km/h
247 14-06-2010 01:22:02 14.8 C 7.35 g/m*3 14.8 C 0 km/h
248 14-06-2010 01:34:02 14.5 C 7.34 g/m*3 14.5 C 0 km/h
249 14-06-2010 01:46:02 14.3 C 7.25 g/m*3 14.3 C 0 km/h
250 14-06-2010 01:58:02 14.1 C 7.4 g/m*3 14.1 C 0 km/h
Sensor: Nr:Datum:Temp:Abs-Feuchte:Windchill:Wind:
Aussen-T/F 251 14-06-2010 02:10:02 13.9 C 7.67 g/m*3 13.9 C 0 km/h
252 14-06-2010 02:22:03 13.4 C 7.44 g/m*3 13.4 C 0 km/h
253 14-06-2010 02:34:03 13.5 C 7.72 g/m*3 13.5 C 0 km/h
254 14-06-2010 02:46:03 13.3 C 7.74 g/m*3 13.3 C 0 km/h
255 14-06-2010 02:58:03 13.2 C 7.81 g/m*3 13.2 C 0 km/h
256 14-06-2010 03:10:03 13 C 7.83 g/m*3 13 C 0 km/h
257 14-06-2010 03:22:03 12.9 C 7.89 g/m*3 12.9 C 0 km/h
258 14-06-2010 03:34:03 12.7 C 7.9 g/m*3 12.7 C 0 km/h
259 14-06-2010 03:46:03 12.5 C 7.81 g/m*3 12.5 C 0 km/h
260 14-06-2010 03:58:03 12.2 C 7.88 g/m*3 12.2 C 0 km/h
261 14-06-2010 04:10:03 12.2 C 7.88 g/m*3 12.2 C 0 km/h
262 14-06-2010 04:22:03 12.1 C 7.94 g/m*3 12.1 C 0 km/h
263 14-06-2010 04:34:03 11.9 C 7.84 g/m*3 11.9 C 0 km/h
264 14-06-2010 04:46:03 11.9 C 7.84 g/m*3 11.9 C 0 km/h
265 14-06-2010 04:58:03 11.8 C 7.79 g/m*3 11.8 C 0 km/h
266 14-06-2010 05:10:03 11.8 C 7.79 g/m*3 11.8 C 0 km/h
267 14-06-2010 05:22:03 11.6 C 7.69 g/m*3 11.6 C 0 km/h
268 14-06-2010 05:34:03 11.4 C 7.6 g/m*3 11.4 C 0 km/h
269 14-06-2010 05:46:03 11.3 C 7.55 g/m*3 11.3 C 0 km/h
270 14-06-2010 05:58:03 11.3 C 7.65 g/m*3 11.3 C 0 km/h
271 14-06-2010 06:10:03 11.3 C 7.75 g/m*3 11.3 C 0 km/h
272 14-06-2010 06:22:03 11.2 C 7.7 g/m*3 11.2 C 0 km/h
273 14-06-2010 06:34:03 11.3 C 7.85 g/m*3 11.3 C 0 km/h
274 14-06-2010 06:46:03 11.4 C 7.9 g/m*3 11.4 C 0 km/h
275 14-06-2010 06:58:04 11.2 C 7.91 g/m*3 11.2 C 0 km/h
Sensor: Nr:Datum:Temp:Abs-Feuchte:Windchill:Wind:
Aussen-T/F 276 14-06-2010 07:10:01 11.2 C 8.01 g/m*3 11.2 C 0 km/h
277 14-06-2010 07:22:02 11.5 C 8.26 g/m*3 11.5 C 0 km/h
278 14-06-2010 07:34:01 11.7 C 8.26 g/m*3 11.7 C 0 km/h
279 14-06-2010 07:46:01 11.9 C 8.26 g/m*3 11.9 C 0 km/h
280 14-06-2010 07:58:01 12.2 C 8.31 g/m*3 12.2 C 0 km/h
281 14-06-2010 08:10:02 12.5 C 8.36 g/m*3 12.5 C 0 km/h
282 14-06-2010 08:22:02 12.9 C 8.34 g/m*3 12.9 C 0 km/h
283 14-06-2010 08:34:01 13.2 C 8.38 g/m*3 13.2 C 0 km/h
284 14-06-2010 08:46:02 13.8 C 8.46 g/m*3 13.8 C 0 km/h
285 14-06-2010 08:58:02 14.5 C 8.58 g/m*3 14.5 C 0 km/h
286 14-06-2010 09:10:01 15 C 8.33 g/m*3 15 C 0 km/h
287 14-06-2010 09:22:02 15.9 C 8.4 g/m*3 15.9 C 0 km/h
288 14-06-2010 09:34:01 17 C 7.96 g/m*3 17 C 0 km/h
289 14-06-2010 09:46:03 17.8 C 7.74 g/m*3 17.8 C 0 km/h
290 14-06-2010 09:58:03 18.4 C 7.55 g/m*3 18.4 C 0 km/h
291 14-06-2010 10:10:02 18.8 C 7.57 g/m*3 18.8 C 0 km/h
292 14-06-2010 10:22:02 19.5 C 7.55 g/m*3 19.5 C 0 km/h
293 14-06-2010 10:34:02 20.3 C 7.39 g/m*3 20.3 C 0 km/h
294 14-06-2010 10:46:02 20.4 C 7.08 g/m*3 20.4 C 0 km/h
295 14-06-2010 10:58:02 20.8 C 7.06 g/m*3 20.8 C 0 km/h
296 14-06-2010 11:10:01 21.5 C 6.98 g/m*3 21.5 C 0 km/h
297 14-06-2010 11:22:02 22.3 C 7.11 g/m*3 22.3 C 0 km/h
298 14-06-2010 11:34:02 23.1 C 6.61 g/m*3 23.1 C 0 km/h
299 14-06-2010 11:46:02 23.6 C 6.17 g/m*3 23.6 C 0 km/h
300 14-06-2010 11:58:02 24.1 C 5.47 g/m*3 24.1 C 0 km/h
Sensor: Nr:Datum:Temp:Abs-Feuchte:Windchill:Wind:
Aussen-T/F 301 14-06-2010 12:10:02 24.5 C 5.82 g/m*3 24.5 C 0 km/h
302 14-06-2010 12:22:02 24.6 C 5.63 g/m*3 24.6 C 0 km/h
303 14-06-2010 12:34:02 23.9 C 5.41 g/m*3 23.9 C 0 km/h
304 14-06-2010 12:46:02 25.7 C 5.51 g/m*3 25.7 C 0 km/h
305 14-06-2010 12:58:02 27.2 C 5.2 g/m*3 27.2 C 0 km/h
306 14-06-2010 13:10:02 26.5 C 5.01 g/m*3 26.5 C 0 km/h
307 14-06-2010 13:22:01 23.9 C 5.41 g/m*3 23.9 C 0 km/h
308 14-06-2010 13:34:02 27.8 C 5.38 g/m*3 27.8 C 0 km/h
309 14-06-2010 13:46:02 27.1 C 5.18 g/m*3 27.1 C 0 km/h
310 14-06-2010 13:58:02 26.4 C 4.98 g/m*3 26.4 C 0 km/h
311 14-06-2010 14:10:02 27.4 C 5.26 g/m*3 27.4 C 0 km/h
312 14-06-2010 14:22:01 28 C 5.44 g/m*3 28 C 0 km/h
313 14-06-2010 14:34:02 27.8 C 5.38 g/m*3 27.8 C 0 km/h
314 14-06-2010 14:46:02 27 C 5.15 g/m*3 27 C 0 km/h
315 14-06-2010 14:58:02 27 C 5.15 g/m*3 27 C 0 km/h
316 14-06-2010 15:10:02 26.3 C 5.45 g/m*3 26.3 C 0 km/h
317 14-06-2010 15:22:02 25.6 C 5.24 g/m*3 25.6 C 0 km/h
318 14-06-2010 15:34:02 26.7 C 5.06 g/m*3 26.7 C 0 km/h
319 14-06-2010 15:46:02 28 C 5.44 g/m*3 28 C 0 km/h
320 14-06-2010 15:58:02 27.9 C 5.41 g/m*3 27.9 C 0 km/h
321 14-06-2010 16:10:02 29.1 C 5.78 g/m*3 29.1 C 0 km/h
322 14-06-2010 16:22:02 29.1 C 5.78 g/m*3 29.1 C 0 km/h
323 14-06-2010 16:34:02 29.8 C 6 g/m*3 29.8 C 0 km/h
324 14-06-2010 16:46:01 30.2 C 6.13 g/m*3 30.2 C 0 km/h
325 14-06-2010 16:58:01 30.9 C 6.37 g/m*3 30.9 C 0 km/h
Sensor: Nr:Datum:Temp:Abs-Feuchte:Windchill:Wind:
Aussen-T/F 326 14-06-2010 17:10:02 30 C 6.06 g/m*3 30 C 0 km/h
327 14-06-2010 17:22:02 28.7 C 5.65 g/m*3 28.7 C 0 km/h
328 14-06-2010 17:34:02 29.7 C 5.97 g/m*3 29.7 C 0 km/h
329 14-06-2010 17:46:02 29 C 5.74 g/m*3 29 C 0 km/h
330 14-06-2010 17:58:02 28.3 C 5.53 g/m*3 28.3 C 0 km/h
331 14-06-2010 18:10:02 27.7 C 5.35 g/m*3 27.7 C 0 km/h
332 14-06-2010 18:22:02 29.4 C 5.87 g/m*3 29.4 C 0 km/h
333 14-06-2010 18:34:01 29.5 C 5.9 g/m*3 29.5 C 0 km/h
334 14-06-2010 18:46:02 28.6 C 5.62 g/m*3 28.6 C 0 km/h
335 14-06-2010 18:58:02 27.2 C 5.2 g/m*3 27.2 C 0 km/h
336 14-06-2010 19:10:01 25.7 C 5.75 g/m*3 25.7 C 0 km/h
337 14-06-2010 19:22:01 24.7 C 6.11 g/m*3 24.7 C 0 km/h
338 14-06-2010 19:34:01 24.4 C 6.68 g/m*3 24.4 C 0 km/h
339 14-06-2010 19:46:02 25.5 C 6.39 g/m*3 25.5 C 0 km/h
340 14-06-2010 19:58:02 25.7 C 6.46 g/m*3 25.7 C 0 km/h
341 14-06-2010 20:10:02 25.3 C 6.32 g/m*3 25.3 C 0 km/h
342 14-06-2010 20:22:02 24.2 C 6.6 g/m*3 24.2 C 0 km/h
343 14-06-2010 20:34:02 22.9 C 6.54 g/m*3 22.9 C 0 km/h
344 14-06-2010 20:46:01 22.2 C 6.09 g/m*3 22.2 C 0 km/h
345 14-06-2010 20:58:01 21.7 C 6.1 g/m*3 21.7 C 0 km/h
346 14-06-2010 21:10:02 21.1 C 6.08 g/m*3 21.1 C 0 km/h
347 14-06-2010 21:22:01 20.4 C 6.19 g/m*3 20.4 C 0 km/h
348 14-06-2010 21:34:02 20 C 6.22 g/m*3 20 C 0 km/h
349 14-06-2010 21:46:02 19.6 C 6.08 g/m*3 19.6 C 0 km/h
350 14-06-2010 21:58:02 19.2 C 6.1 g/m*3 19.2 C 0 km/h
Sensor: Nr:Datum:Temp:Abs-Feuchte:Windchill:Wind:
Aussen-T/F 351 14-06-2010 22:10:02 18.9 C 6.32 g/m*3 18.9 C 0 km/h
352 14-06-2010 22:22:02 18.7 C 6.72 g/m*3 18.7 C 0 km/h
353 14-06-2010 22:34:01 18.6 C 7.64 g/m*3 18.6 C 0 km/h
354 14-06-2010 22:46:02 18.5 C 8.07 g/m*3 18.5 C 0 km/h
355 14-06-2010 22:58:02 18.4 C 8.34 g/m*3 18.4 C 0 km/h
356 14-06-2010 23:10:01 18.2 C 8.39 g/m*3 18.2 C 0 km/h
357 14-06-2010 23:22:01 18.4 C 8.65 g/m*3 18.4 C 0 km/h
358 14-06-2010 23:34:02 18.4 C 8.49 g/m*3 18.4 C 0 km/h
359 14-06-2010 23:46:02 18.5 C 8.7 g/m*3 18.5 C 0 km/h
360 14-06-2010 23:58:02 18.3 C 8.6 g/m*3 18.3 C 0 km/h
361 15-06-2010 00:10:01 17.7 C 8.6 g/m*3 17.7 C 0 km/h
362 15-06-2010 00:22:02 17.2 C 8.64 g/m*3 17.2 C 0 km/h
363 15-06-2010 00:34:02 17.1 C 8.88 g/m*3 17.1 C 0 km/h
364 15-06-2010 00:46:02 16.8 C 8.72 g/m*3 16.8 C 0 km/h
365 15-06-2010 00:58:02 16.6 C 8.76 g/m*3 16.6 C 0 km/h
366 15-06-2010 01:10:02 16.4 C 8.93 g/m*3 16.4 C 0 km/h
367 15-06-2010 01:22:02 16.3 C 9.02 g/m*3 16.3 C 0 km/h
368 15-06-2010 01:34:01 16 C 8.99 g/m*3 16 C 0 km/h
369 15-06-2010 01:46:02 15.8 C 9.02 g/m*3 15.8 C 0 km/h
370 15-06-2010 01:58:02 15.6 C 9.18 g/m*3 15.6 C 0 km/h
371 15-06-2010 02:10:01 15.5 C 9.25 g/m*3 15.5 C 0 km/h
372 15-06-2010 02:22:01 15.4 C 9.2 g/m*3 15.4 C 0 km/h
373 15-06-2010 02:34:02 15.3 C 9.14 g/m*3 15.3 C 0 km/h
374 15-06-2010 02:47:04 15.1 C 9.16 g/m*3 15.1 C 0 km/h
375 15-06-2010 02:59:04 15 C 9.36 g/m*3 15 C 0 km/h
Sensor: Nr:Datum:Temp:Abs-Feuchte:Windchill:Wind:
Aussen-T/F 376 15-06-2010 03:11:03 14.9 C 9.43 g/m*3 14.9 C 0 km/h
377 15-06-2010 03:23:03 14.8 C 9.5 g/m*3 14.8 C 0 km/h
378 15-06-2010 03:35:02 14.6 C 9.26 g/m*3 14.6 C 0 km/h
379 15-06-2010 03:47:02 14.6 C 9.26 g/m*3 14.6 C 0 km/h
380 15-06-2010 03:59:02 14.3 C 9.09 g/m*3 14.3 C 0 km/h
381 15-06-2010 04:11:02 14.2 C 9.16 g/m*3 14.2 C 0 km/h
382 15-06-2010 04:23:02 13.9 C 9.23 g/m*3 13.9 C 0 km/h
383 15-06-2010 04:35:01 13.7 C 9.12 g/m*3 13.7 C 0 km/h
384 15-06-2010 04:47:02 13.5 C 9.12 g/m*3 13.5 C 0 km/h
385 15-06-2010 04:59:02 13.5 C 9.24 g/m*3 13.5 C 0 km/h
386 15-06-2010 05:11:01 13.5 C 9.24 g/m*3 13.5 C 0 km/h
387 15-06-2010 05:23:01 13.5 C 9.36 g/m*3 13.5 C 0 km/h
388 15-06-2010 05:35:02 13.5 C 9.36 g/m*3 13.5 C 0 km/h
389 15-06-2010 05:47:02 13.4 C 9.3 g/m*3 13.4 C 0 km/h
390 15-06-2010 05:59:03 13.5 C 9.36 g/m*3 13.5 C 0 km/h
391 15-06-2010 06:11:01 13.6 C 9.42 g/m*3 13.6 C 0 km/h
392 15-06-2010 06:23:02 13.5 C 9.36 g/m*3 13.5 C 0 km/h
393 15-06-2010 06:35:02 13.5 C 9.36 g/m*3 13.5 C 0 km/h
394 15-06-2010 06:47:01 13.5 C 9.47 g/m*3 13.5 C 0 km/h
395 15-06-2010 06:59:01 13.8 C 9.65 g/m*3 13.8 C 0 km/h
396 15-06-2010 07:11:01 14 C 9.77 g/m*3 14 C 0 km/h
397 15-06-2010 07:23:01 14.4 C 9.89 g/m*3 14.4 C 0 km/h
398 15-06-2010 07:35:02 14.9 C 9.94 g/m*3 14.9 C 0 km/h
399 15-06-2010 07:47:02 15.4 C 9.72 g/m*3 15.4 C 0 km/h
400 15-06-2010 07:59:02 15.9 C 9.75 g/m*3 15.9 C 0 km/h
Sensor: Nr:Datum:Temp:Abs-Feuchte:Windchill:Wind:
Aussen-T/F 401 15-06-2010 08:11:01 16.3 C 9.57 g/m*3 16.3 C 0 km/h
402 15-06-2010 08:23:02 16.7 C 9.52 g/m*3 16.7 C 0 km/h
403 15-06-2010 08:35:01 16.5 C 8.85 g/m*3 16.5 C 0 km/h
404 15-06-2010 08:47:02 16.8 C 8.86 g/m*3 16.8 C 0 km/h
405 15-06-2010 08:59:02 17.1 C 8.73 g/m*3 17.1 C 0 km/h
406 15-06-2010 09:11:01 17.1 C 8.44 g/m*3 17.1 C 0 km/h
407 15-06-2010 09:23:01 17.2 C 8.35 g/m*3 17.2 C 0 km/h
408 15-06-2010 09:35:02 17.8 C 8.5 g/m*3 17.8 C 0 km/h
409 15-06-2010 09:47:02 17.9 C 8.4 g/m*3 17.9 C 0 km/h
410 15-06-2010 09:59:02 18.5 C 8.07 g/m*3 18.5 C 0 km/h
411 15-06-2010 10:11:01 19 C 8.15 g/m*3 19 C 0 km/h
412 15-06-2010 10:23:01 20 C 7.78 g/m*3 20 C 0 km/h
413 15-06-2010 10:35:02 20 C 7.95 g/m*3 20 C 0 km/h
414 15-06-2010 10:47:02 19.9 C 7.9 g/m*3 19.9 C 0 km/h
415 15-06-2010 10:59:02 19.7 C 7.98 g/m*3 19.7 C 0 km/h
416 15-06-2010 11:11:02 20.3 C 7.91 g/m*3 20.3 C 0 km/h
417 15-06-2010 11:23:02 20.9 C 8.01 g/m*3 20.9 C 0 km/h
418 15-06-2010 11:35:02 20.4 C 7.78 g/m*3 20.4 C 0 km/h
419 15-06-2010 11:47:02 21.3 C 8.2 g/m*3 21.3 C 0 km/h
420 15-06-2010 11:59:02 20.6 C 8.23 g/m*3 20.6 C 0 km/h
421 15-06-2010 12:11:02 21.1 C 8.29 g/m*3 21.1 C 0 km/h
422 15-06-2010 12:23:02 21.2 C 8.15 g/m*3 21.2 C 0 km/h
423 15-06-2010 12:35:02 21.2 C 8.15 g/m*3 21.2 C 0 km/h
424 15-06-2010 12:47:02 21.6 C 8.16 g/m*3 21.6 C 0 km/h
425 15-06-2010 12:59:02 21.2 C 8.15 g/m*3 21.2 C 0 km/h
Sensor: Nr:Datum:Temp:Abs-Feuchte:Windchill:Wind:
Aussen-T/F 426 15-06-2010 13:11:02 20.8 C 8.15 g/m*3 20.8 C 0 km/h
427 15-06-2010 13:23:02 21.3 C 7.83 g/m*3 21.3 C 0 km/h
428 15-06-2010 13:35:02 21 C 7.69 g/m*3 21 C 0 km/h
429 15-06-2010 13:47:02 21.6 C 7.78 g/m*3 21.6 C 0 km/h
430 15-06-2010 13:59:02 23.1 C 7.03 g/m*3 23.1 C 0 km/h
431 15-06-2010 14:11:02 22.1 C 6.83 g/m*3 22.1 C 0 km/h
432 15-06-2010 14:23:02 21.9 C 6.95 g/m*3 21.9 C 0 km/h
433 15-06-2010 14:35:02 21.6 C 7.02 g/m*3 21.6 C 0 km/h
434 15-06-2010 14:47:02 23 C 6.78 g/m*3 23 C 0 km/h
435 15-06-2010 14:59:02 23.9 C 6.71 g/m*3 23.9 C 0 km/h
436 15-06-2010 15:11:02 24.1 C 5.91 g/m*3 24.1 C 0 km/h
437 15-06-2010 15:23:03 23.7 C 5.78 g/m*3 23.7 C 0 km/h
438 15-06-2010 15:35:02 23.9 C 6.06 g/m*3 23.9 C 0 km/h
439 15-06-2010 15:47:03 23.6 C 6.17 g/m*3 23.6 C 0 km/h
440 15-06-2010 15:59:03 23.5 C 6.13 g/m*3 23.5 C 0 km/h
441 15-06-2010 16:11:02 24.2 C 6.16 g/m*3 24.2 C 0 km/h
442 15-06-2010 16:23:03 23.7 C 5.99 g/m*3 23.7 C 0 km/h
443 15-06-2010 16:35:02 24.6 C 5.85 g/m*3 24.6 C 0 km/h
444 15-06-2010 16:47:03 24.7 C 5.66 g/m*3 24.7 C 0 km/h
445 15-06-2010 16:59:03 24.9 C 5.49 g/m*3 24.9 C 0 km/h
446 15-06-2010 17:11:02 24.6 C 5.63 g/m*3 24.6 C 0 km/h
447 15-06-2010 17:23:02 23.7 C 5.56 g/m*3 23.7 C 0 km/h
448 15-06-2010 17:35:02 24.2 C 5.72 g/m*3 24.2 C 0 km/h
449 15-06-2010 17:47:02 23.4 C 5.47 g/m*3 23.4 C 0 km/h
450 15-06-2010 17:59:02 24.9 C 5.72 g/m*3 24.9 C 0 km/h
Sensor: Nr:Datum:Temp:Abs-Feuchte:Windchill:Wind:
Aussen-T/F 451 15-06-2010 18:11:02 25.1 C 5.56 g/m*3 25.1 C 0 km/h
452 15-06-2010 18:23:02 24.6 C 5.85 g/m*3 24.6 C 0 km/h
453 15-06-2010 18:35:02 24.1 C 5.47 g/m*3 24.1 C 0 km/h
454 15-06-2010 18:47:02 23.5 C 5.71 g/m*3 23.5 C 0 km/h
455 15-06-2010 18:59:02 24.3 C 5.53 g/m*3 24.3 C 0 km/h
456 15-06-2010 19:11:01 23.1 C 5.37 g/m*3 23.1 C 0 km/h
457 15-06-2010 19:23:02 23.3 C 5.44 g/m*3 23.3 C 0 km/h
458 15-06-2010 19:35:02 23.2 C 5.41 g/m*3 23.2 C 0 km/h
459 15-06-2010 19:47:01 23.4 C 5.47 g/m*3 23.4 C 0 km/h
460 15-06-2010 19:59:01 23.8 C 5.59 g/m*3 23.8 C 0 km/h
461 15-06-2010 20:11:01 22.8 C 5.49 g/m*3 22.8 C 0 km/h
462 15-06-2010 20:23:01 21.7 C 5.72 g/m*3 21.7 C 0 km/h
463 15-06-2010 20:35:02 21.9 C 5.98 g/m*3 21.9 C 0 km/h
464 15-06-2010 20:47:02 21.1 C 5.53 g/m*3 21.1 C 0 km/h
465 15-06-2010 20:59:02 20.4 C 5.66 g/m*3 20.4 C 0 km/h
466 15-06-2010 21:11:02 20 C 5.36 g/m*3 20 C 0 km/h
467 15-06-2010 21:23:02 19.7 C 5.77 g/m*3 19.7 C 0 km/h
468 15-06-2010 21:35:02 19.2 C 5.77 g/m*3 19.2 C 0 km/h
469 15-06-2010 21:47:02 18.7 C 5.6 g/m*3 18.7 C 0 km/h
470 15-06-2010 21:59:02 18.3 C 5.63 g/m*3 18.3 C 0 km/h
471 15-06-2010 22:11:02 18 C 5.53 g/m*3 18 C 0 km/h
472 15-06-2010 22:24:01 17.7 C 5.58 g/m*3 17.7 C 0 km/h
473 15-06-2010 22:36:01 17.3 C 5.45 g/m*3 17.3 C 0 km/h
474 15-06-2010 22:48:01 17.1 C 5.39 g/m*3 17.1 C 0 km/h
475 15-06-2010 23:00:01 16.9 C 5.75 g/m*3 16.9 C 0 km/h
Sensor: Nr:Datum:Temp:Abs-Feuchte:Windchill:Wind:
Aussen-T/F 476 15-06-2010 23:12:01 16.6 C 5.79 g/m*3 16.6 C 0 km/h
477 15-06-2010 23:24:01 16.1 C 5.89 g/m*3 16.1 C 0 km/h
478 15-06-2010 23:36:01 15.8 C 6.06 g/m*3 15.8 C 0 km/h
479 15-06-2010 23:48:01 15.4 C 6.04 g/m*3 15.4 C 0 km/h
480 16-06-2010 00:00:01 15.2 C 6.1 g/m*3 15.2 C 0 km/h
481 16-06-2010 00:12:01 15 C 5.9 g/m*3 15 C 0 km/h
482 16-06-2010 00:24:02 14.6 C 6.01 g/m*3 14.6 C 0 km/h
483 16-06-2010 00:36:02 14.4 C 6.06 g/m*3 14.4 C 0 km/h
484 16-06-2010 00:48:02 14.2 C 6.11 g/m*3 14.2 C 0 km/h
485 16-06-2010 01:00:02 13.8 C 6.08 g/m*3 13.8 C 0 km/h
486 16-06-2010 01:12:02 13.5 C 6.2 g/m*3 13.5 C 0 km/h
487 16-06-2010 01:24:02 13.4 C 6.28 g/m*3 13.4 C 0 km/h
488 16-06-2010 01:36:02 13.2 C 6.2 g/m*3 13.2 C 0 km/h
489 16-06-2010 01:48:02 13.1 C 6.28 g/m*3 13.1 C 0 km/h
490 16-06-2010 02:00:02 13 C 6.24 g/m*3 13 C 0 km/h
491 16-06-2010 02:12:02 12.9 C 6.2 g/m*3 12.9 C 0 km/h
492 16-06-2010 02:24:02 12.7 C 6.12 g/m*3 12.7 C 0 km/h
493 16-06-2010 02:36:02 12.5 C 6.05 g/m*3 12.5 C 0 km/h
494 16-06-2010 02:48:02 12.4 C 6.12 g/m*3 12.4 C 0 km/h
495 16-06-2010 03:00:02 12.2 C 6.04 g/m*3 12.2 C 0 km/h
496 16-06-2010 03:12:02 12 C 6.07 g/m*3 12 C 0 km/h
497 16-06-2010 03:24:02 11.8 C 6.1 g/m*3 11.8 C 0 km/h
498 16-06-2010 03:36:02 11.6 C 6.13 g/m*3 11.6 C 0 km/h
499 16-06-2010 03:48:02 11.5 C 6.09 g/m*3 11.5 C 0 km/h
500 16-06-2010 04:00:02 11.4 C 6.16 g/m*3 11.4 C 0 km/h
Sensor: Nr:Datum:Temp:Abs-Feuchte:Windchill:Wind:
Aussen-T/F 501 16-06-2010 04:12:02 11.3 C 6.22 g/m*3 11.3 C 0 km/h
502 16-06-2010 04:24:03 11.1 C 6.14 g/m*3 11.1 C 0 km/h
503 16-06-2010 04:36:03 11.1 C 6.04 g/m*3 11.1 C 0 km/h
504 16-06-2010 04:48:03 11.1 C 6.14 g/m*3 11.1 C 0 km/h
505 16-06-2010 05:00:03 10.9 C 6.17 g/m*3 10.9 C 0 km/h
506 16-06-2010 05:12:03 10.8 C 6.23 g/m*3 10.8 C 0 km/h
507 16-06-2010 05:24:03 10.6 C 6.15 g/m*3 10.6 C 0 km/h
508 16-06-2010 05:36:03 10.5 C 6.21 g/m*3 10.5 C 0 km/h
509 16-06-2010 05:48:03 10.5 C 6.21 g/m*3 10.5 C 0 km/h
510 16-06-2010 06:00:03 10.5 C 6.3 g/m*3 10.5 C 0 km/h
511 16-06-2010 06:12:03 10.6 C 6.34 g/m*3 10.6 C 0 km/h
512 16-06-2010 06:24:03 10.7 C 6.48 g/m*3 10.7 C 0 km/h
513 16-06-2010 06:36:03 10.8 C 6.52 g/m*3 10.8 C 0 km/h
514 16-06-2010 06:48:03 10.9 C 6.56 g/m*3 10.9 C 0 km/h
515 16-06-2010 07:00:03 11.1 C 6.65 g/m*3 11.1 C 0 km/h
516 16-06-2010 07:12:02 11.5 C 6.71 g/m*3 11.5 C 0 km/h
517 16-06-2010 07:24:01 11.9 C 6.88 g/m*3 11.9 C 0 km/h
518 16-06-2010 07:36:02 12.1 C 6.86 g/m*3 12.1 C 0 km/h
519 16-06-2010 07:48:02 12.5 C 6.82 g/m*3 12.5 C 0 km/h
520 16-06-2010 08:00:02 12.9 C 6.76 g/m*3 12.9 C 0 km/h
521 16-06-2010 08:12:02 13.3 C 6.47 g/m*3 13.3 C 0 km/h
522 16-06-2010 08:24:02 13.7 C 6.39 g/m*3 13.7 C 0 km/h
523 16-06-2010 08:36:02 14.1 C 6.07 g/m*3 14.1 C 0 km/h
524 16-06-2010 08:48:01 14.5 C 5.97 g/m*3 14.5 C 0 km/h
525 16-06-2010 09:00:01 14.9 C 5.86 g/m*3 14.9 C 0 km/h
Sensor: Nr:Datum:Temp:Abs-Feuchte:Windchill:Wind:
Aussen-T/F 526 16-06-2010 09:12:02 15.5 C 5.82 g/m*3 15.5 C 0 km/h
527 16-06-2010 09:24:01 16 C 5.59 g/m*3 16 C 0 km/h
528 16-06-2010 09:36:01 16.5 C 5.76 g/m*3 16.5 C 0 km/h
529 16-06-2010 09:48:02 16.9 C 5.61 g/m*3 16.9 C 0 km/h
530 16-06-2010 10:00:02 17.3 C 5.3 g/m*3 17.3 C 0 km/h
531 16-06-2010 10:12:02 17.5 C 5.37 g/m*3 17.5 C 0 km/h
532 16-06-2010 10:24:02 18.3 C 5.32 g/m*3 18.3 C 0 km/h
533 16-06-2010 10:36:02 18.6 C 5.09 g/m*3 18.6 C 0 km/h
534 16-06-2010 10:48:02 19.1 C 4.92 g/m*3 19.1 C 0 km/h
535 16-06-2010 11:00:02 19.4 C 4.5 g/m*3 19.4 C 0 km/h
536 16-06-2010 11:12:02 19.7 C 4.75 g/m*3 19.7 C 0 km/h
537 16-06-2010 11:24:02 20.3 C 4.4 g/m*3 20.3 C 0 km/h
538 16-06-2010 11:36:02 21.3 C 4.66 g/m*3 21.3 C 0 km/h
539 16-06-2010 11:48:02 21.7 C 4.58 g/m*3 21.7 C 0 km/h
540 16-06-2010 12:00:02 22.3 C 4.54 g/m*3 22.3 C 0 km/h
541 16-06-2010 12:12:02 23 C 4.32 g/m*3 23 C 0 km/h
542 16-06-2010 12:24:02 23.7 C 4.49 g/m*3 23.7 C 0 km/h
543 16-06-2010 12:36:01 23.7 C 4.28 g/m*3 23.7 C 0 km/h
544 16-06-2010 12:48:02 24.4 C 4.45 g/m*3 24.4 C 0 km/h
545 16-06-2010 13:00:02 25.1 C 4.63 g/m*3 25.1 C 0 km/h
546 16-06-2010 13:12:01 25.6 C 4.76 g/m*3 25.6 C 0 km/h
547 16-06-2010 13:24:02 26.2 C 4.92 g/m*3 26.2 C 0 km/h
548 16-06-2010 13:36:02 27.2 C 5.2 g/m*3 27.2 C 0 km/h
549 16-06-2010 13:48:02 27.1 C 5.18 g/m*3 27.1 C 0 km/h
550 16-06-2010 14:00:03 26.2 C 4.92 g/m*3 26.2 C 0 km/h
Sensor: Nr:Datum:Temp:Abs-Feuchte:Windchill:Wind:
Aussen-T/F 551 16-06-2010 14:12:02 25.4 C 4.71 g/m*3 25.4 C 0 km/h
552 16-06-2010 14:24:02 25.4 C 4.71 g/m*3 25.4 C 0 km/h
553 16-06-2010 14:36:02 25.3 C 4.68 g/m*3 25.3 C 0 km/h
554 16-06-2010 14:48:02 25.5 C 4.73 g/m*3 25.5 C 0 km/h
555 16-06-2010 15:00:02 25.7 C 4.79 g/m*3 25.7 C 0 km/h
556 16-06-2010 15:12:02 25.8 C 4.82 g/m*3 25.8 C 0 km/h
557 16-06-2010 15:24:01 26.2 C 4.92 g/m*3 26.2 C 0 km/h
558 16-06-2010 15:36:02 26.5 C 5.01 g/m*3 26.5 C 0 km/h
559 16-06-2010 15:48:02 26.6 C 5.03 g/m*3 26.6 C 0 km/h
560 16-06-2010 16:00:02 27.1 C 5.18 g/m*3 27.1 C 0 km/h
561 16-06-2010 16:12:02 27.2 C 5.2 g/m*3 27.2 C 0 km/h
562 16-06-2010 16:24:02 26.9 C 5.12 g/m*3 26.9 C 0 km/h
563 16-06-2010 16:36:02 27.3 C 5.23 g/m*3 27.3 C 0 km/h
564 16-06-2010 16:48:02 26.9 C 5.12 g/m*3 26.9 C 0 km/h
565 16-06-2010 17:00:02 26.5 C 5.01 g/m*3 26.5 C 0 km/h
566 16-06-2010 17:12:02 26.3 C 4.95 g/m*3 26.3 C 0 km/h
567 16-06-2010 17:24:02 27.9 C 5.41 g/m*3 27.9 C 0 km/h
568 16-06-2010 17:36:02 27.5 C 5.29 g/m*3 27.5 C 0 km/h
569 16-06-2010 17:48:01 26.5 C 5.01 g/m*3 26.5 C 0 km/h
570 16-06-2010 18:00:01 26.9 C 5.12 g/m*3 26.9 C 0 km/h
571 16-06-2010 18:12:02 26.9 C 5.12 g/m*3 26.9 C 0 km/h
572 16-06-2010 18:24:01 26.9 C 5.12 g/m*3 26.9 C 0 km/h
573 16-06-2010 18:36:01 26.3 C 4.95 g/m*3 26.3 C 0 km/h
574 16-06-2010 18:48:01 26.1 C 4.9 g/m*3 26.1 C 0 km/h
575 16-06-2010 19:00:01 26.6 C 5.03 g/m*3 26.6 C 0 km/h
Sensor: Nr:Datum:Temp:Abs-Feuchte:Windchill:Wind:
Aussen-T/F 576 16-06-2010 19:12:02 25.7 C 4.79 g/m*3 25.7 C 0 km/h
577 16-06-2010 19:24:01 24.9 C 4.58 g/m*3 24.9 C 0 km/h
578 16-06-2010 19:36:01 24.1 C 4.59 g/m*3 24.1 C 0 km/h
579 16-06-2010 19:48:01 24.1 C 5.03 g/m*3 24.1 C 0 km/h
580 16-06-2010 20:00:01 23.9 C 5.19 g/m*3 23.9 C 0 km/h
581 16-06-2010 20:12:01 23.1 C 5.17 g/m*3 23.1 C 0 km/h
582 16-06-2010 20:24:02 22.5 C 5.19 g/m*3 22.5 C 0 km/h
583 16-06-2010 20:36:01 22.5 C 5.39 g/m*3 22.5 C 0 km/h
584 16-06-2010 20:48:03 22.2 C 5.3 g/m*3 22.2 C 0 km/h
585 16-06-2010 21:00:03 21.9 C 5.79 g/m*3 21.9 C 0 km/h
586 16-06-2010 21:12:02 21.3 C 5.78 g/m*3 21.3 C 0 km/h
587 16-06-2010 21:24:03 20.8 C 5.79 g/m*3 20.8 C 0 km/h
588 16-06-2010 21:36:02 20.2 C 5.94 g/m*3 20.2 C 0 km/h
589 16-06-2010 21:48:02 19.6 C 5.91 g/m*3 19.6 C 0 km/h
590 16-06-2010 22:00:02 19.1 C 5.74 g/m*3 19.1 C 0 km/h
591 16-06-2010 22:12:02 18.8 C 5.8 g/m*3 18.8 C 0 km/h
592 16-06-2010 22:24:02 18.5 C 5.7 g/m*3 18.5 C 0 km/h
593 16-06-2010 22:36:02 18.3 C 5.79 g/m*3 18.3 C 0 km/h
594 16-06-2010 22:48:02 18.2 C 5.75 g/m*3 18.2 C 0 km/h
595 16-06-2010 23:00:02 18 C 5.84 g/m*3 18 C 0 km/h
596 16-06-2010 23:12:02 17.6 C 5.85 g/m*3 17.6 C 0 km/h
597 16-06-2010 23:24:02 17.2 C 5.86 g/m*3 17.2 C 0 km/h
598 16-06-2010 23:37:02 17 C 5.93 g/m*3 17 C 0 km/h
599 16-06-2010 23:49:02 16.8 C 6 g/m*3 16.8 C 0 km/h
600 17-06-2010 00:01:02 16.5 C 5.9 g/m*3 16.5 C 0 km/h
Sensor: Nr:Datum:Temp:Abs-Feuchte:Windchill:Wind:
Aussen-T/F 601 17-06-2010 00:13:02 16.3 C 5.97 g/m*3 16.3 C 0 km/h
602 17-06-2010 00:25:02 16 C 5.99 g/m*3 16 C 0 km/h
603 17-06-2010 00:37:02 16 C 5.99 g/m*3 16 C 0 km/h
604 17-06-2010 00:49:02 15.8 C 6.06 g/m*3 15.8 C 0 km/h
605 17-06-2010 01:01:02 15.6 C 6.12 g/m*3 15.6 C 0 km/h
606 17-06-2010 01:13:03 15.5 C 5.95 g/m*3 15.5 C 0 km/h
607 17-06-2010 01:25:03 15.4 C 6.04 g/m*3 15.4 C 0 km/h
608 17-06-2010 01:37:03 15.2 C 6.1 g/m*3 15.2 C 0 km/h
609 17-06-2010 01:49:03 15.2 C 6.1 g/m*3 15.2 C 0 km/h
610 17-06-2010 02:01:03 15 C 6.03 g/m*3 15 C 0 km/h
611 17-06-2010 02:13:03 14.9 C 6.12 g/m*3 14.9 C 0 km/h
612 17-06-2010 02:25:03 14.8 C 6.21 g/m*3 14.8 C 0 km/h
613 17-06-2010 02:37:03 14.6 C 6.13 g/m*3 14.6 C 0 km/h
614 17-06-2010 02:49:03 14.5 C 6.22 g/m*3 14.5 C 0 km/h
615 17-06-2010 03:01:03 14.5 C 6.22 g/m*3 14.5 C 0 km/h
616 17-06-2010 03:13:03 14.5 C 6.09 g/m*3 14.5 C 0 km/h
617 17-06-2010 03:25:03 14.5 C 6.09 g/m*3 14.5 C 0 km/h
618 17-06-2010 03:37:03 14.5 C 6.09 g/m*3 14.5 C 0 km/h
619 17-06-2010 03:49:03 14.4 C 6.06 g/m*3 14.4 C 0 km/h
620 17-06-2010 04:01:03 14.2 C 5.98 g/m*3 14.2 C 0 km/h
621 17-06-2010 04:13:03 14.3 C 6.02 g/m*3 14.3 C 0 km/h
622 17-06-2010 04:25:03 14.1 C 5.95 g/m*3 14.1 C 0 km/h
623 17-06-2010 04:37:03 14.1 C 5.83 g/m*3 14.1 C 0 km/h
624 17-06-2010 04:49:03 14 C 5.91 g/m*3 14 C 0 km/h
625 17-06-2010 05:01:03 13.8 C 5.84 g/m*3 13.8 C 0 km/h
Sensor: Nr:Datum:Temp:Abs-Feuchte:Windchill:Wind:
Aussen-T/F 626 17-06-2010 05:13:04 13.8 C 5.84 g/m*3 13.8 C 0 km/h
627 17-06-2010 05:25:04 13.6 C 5.77 g/m*3 13.6 C 0 km/h
628 17-06-2010 05:37:04 13.5 C 5.85 g/m*3 13.5 C 0 km/h
629 17-06-2010 05:49:04 13.4 C 5.93 g/m*3 13.4 C 0 km/h
630 17-06-2010 06:01:04 13.5 C 5.97 g/m*3 13.5 C 0 km/h
631 17-06-2010 06:13:04 13.5 C 5.97 g/m*3 13.5 C 0 km/h
632 17-06-2010 06:25:04 13.7 C 6.16 g/m*3 13.7 C 0 km/h
633 17-06-2010 06:37:04 14.1 C 6.19 g/m*3 14.1 C 0 km/h
634 17-06-2010 06:49:04 14.4 C 6.43 g/m*3 14.4 C 0 km/h
635 17-06-2010 07:01:03 14.4 C 6.3 g/m*3 14.4 C 0 km/h
636 17-06-2010 07:13:04 14.7 C 6.17 g/m*3 14.7 C 0 km/h
637 17-06-2010 07:25:02 15.1 C 6.19 g/m*3 15.1 C 0 km/h
638 17-06-2010 07:37:03 15.5 C 6.21 g/m*3 15.5 C 0 km/h
639 17-06-2010 07:49:02 16 C 6.54 g/m*3 16 C 0 km/h
640 17-06-2010 08:01:02 16.2 C 6.62 g/m*3 16.2 C 0 km/h
641 17-06-2010 08:13:03 16.5 C 6.6 g/m*3 16.5 C 0 km/h
642 17-06-2010 08:25:01 16.6 C 6.64 g/m*3 16.6 C 0 km/h
643 17-06-2010 08:37:02 16.6 C 6.5 g/m*3 16.6 C 0 km/h
644 17-06-2010 08:49:02 16.8 C 6.72 g/m*3 16.8 C 0 km/h
645 17-06-2010 09:01:02 16.7 C 6.68 g/m*3 16.7 C 0 km/h
646 17-06-2010 09:13:02 15.1 C 7.61 g/m*3 15.1 C 0 km/h
647 17-06-2010 09:25:01 13.9 C 8.27 g/m*3 13.9 C 0 km/h
648 17-06-2010 09:37:02 13.5 C 8.66 g/m*3 13.5 C 0 km/h
649 17-06-2010 09:49:01 13.1 C 8.67 g/m*3 13.1 C 0 km/h
650 17-06-2010 10:01:02 12.9 C 9.02 g/m*3 12.9 C 0 km/h
Sensor: Nr:Datum:Temp:Abs-Feuchte:Windchill:Wind:
Aussen-T/F 651 17-06-2010 10:13:02 12.9 C 9.47 g/m*3 12.9 C 0 km/h
652 17-06-2010 10:25:02 13 C 9.64 g/m*3 13 C 0 km/h
653 17-06-2010 10:37:02 13.2 C 9.99 g/m*3 13.2 C 0 km/h
654 17-06-2010 10:49:01 13.2 C 9.99 g/m*3 13.2 C 0 km/h
655 17-06-2010 11:01:02 13.5 C 10.29 g/m*3 13.5 C 0 km/h
656 17-06-2010 11:13:02 13.8 C 10.48 g/m*3 13.8 C 0 km/h
657 17-06-2010 11:25:02 13.8 C 10.48 g/m*3 13.8 C 0 km/h
658 17-06-2010 11:37:02 14 C 10.61 g/m*3 14 C 0 km/h
659 17-06-2010 11:49:02 13.9 C 10.67 g/m*3 13.9 C 0 km/h
660 17-06-2010 12:01:02 14 C 10.74 g/m*3 14 C 0 km/h
661 17-06-2010 12:13:02 14 C 10.74 g/m*3 14 C 0 km/h
662 17-06-2010 12:25:02 13.7 C 10.54 g/m*3 13.7 C 0 km/h
663 17-06-2010 12:37:01 13.8 C 10.72 g/m*3 13.8 C 0 km/h
664 17-06-2010 12:49:02 13.8 C 10.72 g/m*3 13.8 C 0 km/h
665 17-06-2010 13:01:01 13.7 C 10.66 g/m*3 13.7 C 0 km/h
666 17-06-2010 13:13:01 13.7 C 10.78 g/m*3 13.7 C 0 km/h
667 17-06-2010 13:25:02 13.8 C 10.84 g/m*3 13.8 C 0 km/h
668 17-06-2010 13:37:01 13.8 C 10.84 g/m*3 13.8 C 0 km/h
669 17-06-2010 13:49:02 13.9 C 10.91 g/m*3 13.9 C 0 km/h
670 17-06-2010 14:01:02 13.7 C 10.89 g/m*3 13.7 C 0 km/h
671 17-06-2010 14:13:02 13.9 C 11.03 g/m*3 13.9 C 0 km/h
672 17-06-2010 14:25:02 14.2 C 11.23 g/m*3 14.2 C 0 km/h
673 17-06-2010 14:37:02 14.6 C 11.51 g/m*3 14.6 C 0 km/h
674 17-06-2010 14:49:02 15.4 C 11.96 g/m*3 15.4 C 0 km/h
675 17-06-2010 15:01:01 15.9 C 12.19 g/m*3 15.9 C 0 km/h
Sensor: Nr:Datum:Temp:Abs-Feuchte:Windchill:Wind:
Aussen-T/F 676 17-06-2010 15:13:01 16.4 C 12.28 g/m*3 16.4 C 0 km/h
677 17-06-2010 15:25:02 16.6 C 12.29 g/m*3 16.6 C 0 km/h
678 17-06-2010 15:37:01 17 C 12.44 g/m*3 17 C 0 km/h
679 17-06-2010 15:49:02 17 C 11.87 g/m*3 17 C 0 km/h
680 17-06-2010 16:01:01 17 C 12.01 g/m*3 17 C 0 km/h
681 17-06-2010 16:13:01 16.9 C 12.08 g/m*3 16.9 C 0 km/h
682 17-06-2010 16:25:02 16.8 C 12.01 g/m*3 16.8 C 0 km/h
683 17-06-2010 16:37:01 16.9 C 12.08 g/m*3 16.9 C 0 km/h
684 17-06-2010 16:49:03 17 C 12.01 g/m*3 17 C 0 km/h
685 17-06-2010 17:01:02 17 C 11.87 g/m*3 17 C 0 km/h
686 17-06-2010 17:13:02 16.6 C 11.72 g/m*3 16.6 C 0 km/h
687 17-06-2010 17:25:02 16.5 C 11.8 g/m*3 16.5 C 0 km/h
688 17-06-2010 17:37:02 16.5 C 11.8 g/m*3 16.5 C 0 km/h
689 17-06-2010 17:49:02 16.9 C 11.94 g/m*3 16.9 C 0 km/h
690 17-06-2010 18:01:03 17 C 11.58 g/m*3 17 C 0 km/h
691 17-06-2010 18:13:04 17 C 11.43 g/m*3 17 C 0 km/h
692 17-06-2010 18:25:03 17.2 C 11.72 g/m*3 17.2 C 0 km/h
693 17-06-2010 18:37:03 17.2 C 11.86 g/m*3 17.2 C 0 km/h
694 17-06-2010 18:49:02 17.2 C 11.86 g/m*3 17.2 C 0 km/h
695 17-06-2010 19:01:02 16.8 C 11.72 g/m*3 16.8 C 0 km/h
696 17-06-2010 19:13:02 16.8 C 12.01 g/m*3 16.8 C 0 km/h
697 17-06-2010 19:25:01 16.7 C 12.08 g/m*3 16.7 C 0 km/h
698 17-06-2010 19:37:02 16.5 C 12.08 g/m*3 16.5 C 0 km/h
699 17-06-2010 19:49:02 16.3 C 11.93 g/m*3 16.3 C 0 km/h
700 17-06-2010 20:01:02 16.2 C 12 g/m*3 16.2 C 0 km/h
Sensor: Nr:Datum:Temp:Abs-Feuchte:Windchill:Wind:
Aussen-T/F 701 17-06-2010 20:13:02 16 C 11.85 g/m*3 16 C 0 km/h
702 17-06-2010 20:25:02 15.8 C 11.85 g/m*3 15.8 C 0 km/h
703 17-06-2010 20:37:02 15.6 C 11.7 g/m*3 15.6 C 0 km/h
704 17-06-2010 20:49:01 15.5 C 11.63 g/m*3 15.5 C 0 km/h
705 17-06-2010 21:01:02 15.5 C 11.76 g/m*3 15.5 C 0 km/h
706 17-06-2010 21:13:02 15.5 C 11.76 g/m*3 15.5 C 0 km/h
707 17-06-2010 21:25:02 15.6 C 11.84 g/m*3 15.6 C 0 km/h
708 17-06-2010 21:37:02 15.4 C 11.69 g/m*3 15.4 C 0 km/h
709 17-06-2010 21:49:02 15.3 C 11.62 g/m*3 15.3 C 0 km/h
710 17-06-2010 22:01:02 15.2 C 11.68 g/m*3 15.2 C 0 km/h
711 17-06-2010 22:13:02 15.2 C 11.68 g/m*3 15.2 C 0 km/h
712 17-06-2010 22:25:01 15 C 11.54 g/m*3 15 C 0 km/h
713 17-06-2010 22:37:02 15 C 11.54 g/m*3 15 C 0 km/h
714 17-06-2010 22:50:02 14.9 C 11.6 g/m*3 14.9 C 0 km/h
715 17-06-2010 23:02:02 14.8 C 11.53 g/m*3 14.8 C 0 km/h
716 17-06-2010 23:14:02 14.6 C 11.39 g/m*3 14.6 C 0 km/h
717 17-06-2010 23:26:02 14.4 C 11.25 g/m*3 14.4 C 0 km/h
718 17-06-2010 23:38:02 14.3 C 11.18 g/m*3 14.3 C 0 km/h
719 17-06-2010 23:50:02 14.2 C 11.11 g/m*3 14.2 C 0 km/h
720 18-06-2010 00:02:02 14 C 10.98 g/m*3 14 C 0 km/h
721 18-06-2010 00:14:02 13.8 C 10.84 g/m*3 13.8 C 0 km/h
722 18-06-2010 00:26:02 13.7 C 10.89 g/m*3 13.7 C 0 km/h
723 18-06-2010 00:38:02 13.7 C 10.89 g/m*3 13.7 C 0 km/h
724 18-06-2010 00:50:02 13.8 C 10.96 g/m*3 13.8 C 0 km/h
725 18-06-2010 01:02:02 14 C 11.1 g/m*3 14 C 0 km/h
Sensor: Nr:Datum:Temp:Abs-Feuchte:Windchill:Wind:
Aussen-T/F 726 18-06-2010 01:14:02 14 C 11.1 g/m*3 14 C 0 km/h
727 18-06-2010 01:26:02 14 C 11.1 g/m*3 14 C 0 km/h
728 18-06-2010 01:38:02 14.1 C 11.17 g/m*3 14.1 C 0 km/h
729 18-06-2010 01:50:02 14.1 C 11.17 g/m*3 14.1 C 0 km/h
730 18-06-2010 02:02:02 14 C 11.1 g/m*3 14 C 0 km/h
731 18-06-2010 02:14:02 13.9 C 11.03 g/m*3 13.9 C 0 km/h
732 18-06-2010 02:26:02 13.8 C 10.96 g/m*3 13.8 C 0 km/h
733 18-06-2010 02:38:02 13.6 C 10.83 g/m*3 13.6 C 0 km/h
734 18-06-2010 02:50:03 13.5 C 10.76 g/m*3 13.5 C 0 km/h
735 18-06-2010 03:02:03 13.4 C 10.69 g/m*3 13.4 C 0 km/h
736 18-06-2010 03:14:03 13.6 C 10.83 g/m*3 13.6 C 0 km/h
737 18-06-2010 03:26:03 13.7 C 10.89 g/m*3 13.7 C 0 km/h
738 18-06-2010 03:38:03 13.5 C 10.76 g/m*3 13.5 C 0 km/h
739 18-06-2010 03:50:03 13.2 C 10.45 g/m*3 13.2 C 0 km/h
740 18-06-2010 04:02:03 12.9 C 10.26 g/m*3 12.9 C 0 km/h
741 18-06-2010 04:14:03 12.7 C 10.13 g/m*3 12.7 C 0 km/h
742 18-06-2010 04:26:03 12.4 C 9.94 g/m*3 12.4 C 0 km/h
743 18-06-2010 04:38:03 12.3 C 9.88 g/m*3 12.3 C 0 km/h
744 18-06-2010 04:50:03 12.2 C 9.82 g/m*3 12.2 C 0 km/h
745 18-06-2010 05:02:03 12.2 C 9.82 g/m*3 12.2 C 0 km/h
746 18-06-2010 05:14:03 12.2 C 9.82 g/m*3 12.2 C 0 km/h
747 18-06-2010 05:26:03 12.1 C 9.76 g/m*3 12.1 C 0 km/h
748 18-06-2010 05:38:03 12 C 9.7 g/m*3 12 C 0 km/h
749 18-06-2010 05:50:03 12 C 9.7 g/m*3 12 C 0 km/h
750 18-06-2010 06:02:03 12 C 9.7 g/m*3 12 C 0 km/h
Sensor: Nr:Datum:Temp:Abs-Feuchte:Windchill:Wind:
Aussen-T/F 751 18-06-2010 06:14:03 12.1 C 9.76 g/m*3 12.1 C 0 km/h
752 18-06-2010 06:26:03 12.2 C 9.82 g/m*3 12.2 C 0 km/h
753 18-06-2010 06:38:03 12.2 C 9.82 g/m*3 12.2 C 0 km/h
754 18-06-2010 06:50:04 12.4 C 9.83 g/m*3 12.4 C 0 km/h
755 18-06-2010 07:02:02 12.5 C 9.89 g/m*3 12.5 C 0 km/h
756 18-06-2010 07:14:02 12.7 C 9.91 g/m*3 12.7 C 0 km/h
757 18-06-2010 07:26:02 12.8 C 9.86 g/m*3 12.8 C 0 km/h
758 18-06-2010 07:38:02 12.8 C 9.86 g/m*3 12.8 C 0 km/h
759 18-06-2010 07:50:02 12.9 C 9.81 g/m*3 12.9 C 0 km/h
760 18-06-2010 08:02:02 13.1 C 9.7 g/m*3 13.1 C 0 km/h
761 18-06-2010 08:14:02 13.4 C 9.76 g/m*3 13.4 C 0 km/h
762 18-06-2010 08:26:02 13.5 C 9.83 g/m*3 13.5 C 0 km/h
763 18-06-2010 08:38:02 13.8 C 9.89 g/m*3 13.8 C 0 km/h
764 18-06-2010 08:50:02 14.4 C 10.01 g/m*3 14.4 C 0 km/h
765 18-06-2010 09:02:02 14.8 C 9.88 g/m*3 14.8 C 0 km/h
766 18-06-2010 09:14:02 15 C 9.49 g/m*3 15 C 0 km/h
767 18-06-2010 09:26:02 15.5 C 9.78 g/m*3 15.5 C 0 km/h
768 18-06-2010 09:38:02 15.7 C 9.77 g/m*3 15.7 C 0 km/h
769 18-06-2010 09:50:02 16.4 C 9.77 g/m*3 16.4 C 0 km/h
770 18-06-2010 10:02:03 16.5 C 9.27 g/m*3 16.5 C 0 km/h
771 18-06-2010 10:14:03 16.6 C 9.46 g/m*3 16.6 C 0 km/h
772 18-06-2010 10:26:02 16.3 C 9.43 g/m*3 16.3 C 0 km/h
773 18-06-2010 10:38:02 17 C 9.55 g/m*3 17 C 0 km/h
774 18-06-2010 10:50:02 16.4 C 8.93 g/m*3 16.4 C 0 km/h
775 18-06-2010 11:02:02 16.2 C 9.1 g/m*3 16.2 C 0 km/h
Sensor: Nr:Datum:Temp:Abs-Feuchte:Windchill:Wind:
Aussen-T/F 776 18-06-2010 11:14:02 15.9 C 9.07 g/m*3 15.9 C 0 km/h
777 18-06-2010 11:26:01 16.3 C 9.02 g/m*3 16.3 C 0 km/h
778 18-06-2010 11:38:02 16.6 C 8.9 g/m*3 16.6 C 0 km/h
779 18-06-2010 11:50:02 15.9 C 8.53 g/m*3 15.9 C 0 km/h
780 18-06-2010 12:02:02 15.9 C 8.94 g/m*3 15.9 C 0 km/h
781 18-06-2010 12:14:02 15.5 C 8.59 g/m*3 15.5 C 0 km/h
782 18-06-2010 12:26:01 15.3 C 8.88 g/m*3 15.3 C 0 km/h
783 18-06-2010 12:38:02 15 C 8.72 g/m*3 15 C 0 km/h
784 18-06-2010 12:50:02 15.6 C 8.91 g/m*3 15.6 C 0 km/h
785 18-06-2010 13:02:02 15.7 C 8.7 g/m*3 15.7 C 0 km/h
786 18-06-2010 13:14:03 16.3 C 8.6 g/m*3 16.3 C 0 km/h
787 18-06-2010 13:26:01 16.1 C 8.64 g/m*3 16.1 C 0 km/h
788 18-06-2010 13:38:02 15.8 C 8.48 g/m*3 15.8 C 0 km/h
789 18-06-2010 13:50:02 15.3 C 8.49 g/m*3 15.3 C 0 km/h
790 18-06-2010 14:02:02 15.3 C 8.49 g/m*3 15.3 C 0 km/h
791 18-06-2010 14:14:02 14.9 C 8.54 g/m*3 14.9 C 0 km/h
792 18-06-2010 14:26:01 14.7 C 8.44 g/m*3 14.7 C 0 km/h
793 18-06-2010 14:38:02 14.5 C 8.46 g/m*3 14.5 C 0 km/h
794 18-06-2010 14:50:02 14.9 C 8.54 g/m*3 14.9 C 0 km/h
795 18-06-2010 15:02:02 15.4 C 8.54 g/m*3 15.4 C 0 km/h
796 18-06-2010 15:14:03 14.5 C 8.33 g/m*3 14.5 C 0 km/h
797 18-06-2010 15:26:02 14.9 C 8.54 g/m*3 14.9 C 0 km/h
798 18-06-2010 15:38:02 15.2 C 8.44 g/m*3 15.2 C 0 km/h
799 18-06-2010 15:50:02 14.7 C 8.18 g/m*3 14.7 C 0 km/h
800 18-06-2010 16:02:03 14.8 C 8.49 g/m*3 14.8 C 0 km/h
Sensor: Nr:Datum:Temp:Abs-Feuchte:Windchill:Wind:
Aussen-T/F 801 18-06-2010 16:14:03 14.7 C 8.44 g/m*3 14.7 C 0 km/h
802 18-06-2010 16:26:03 15 C 8.33 g/m*3 15 C 0 km/h
803 18-06-2010 16:38:02 15.6 C 8.38 g/m*3 15.6 C 0 km/h
804 18-06-2010 16:50:01 16.8 C 7.86 g/m*3 16.8 C 0 km/h
805 18-06-2010 17:02:02 17.9 C 7.94 g/m*3 17.9 C 0 km/h
806 18-06-2010 17:14:02 19.1 C 7.21 g/m*3 19.1 C 0 km/h
807 18-06-2010 17:26:01 19.2 C 6.93 g/m*3 19.2 C 0 km/h
808 18-06-2010 17:38:02 19.8 C 7.34 g/m*3 19.8 C 0 km/h
809 18-06-2010 17:50:02 19.8 C 6.83 g/m*3 19.8 C 0 km/h
810 18-06-2010 18:02:03 21 C 6.96 g/m*3 21 C 0 km/h
811 18-06-2010 18:14:03 20.8 C 6.88 g/m*3 20.8 C 0 km/h
812 18-06-2010 18:26:02 21.5 C 6.98 g/m*3 21.5 C 0 km/h
813 18-06-2010 18:38:02 21.8 C 6.91 g/m*3 21.8 C 0 km/h
814 18-06-2010 18:50:02 22.2 C 6.87 g/m*3 22.2 C 0 km/h
815 18-06-2010 19:02:02 20.8 C 6.7 g/m*3 20.8 C 0 km/h
816 18-06-2010 19:14:02 19.9 C 7.04 g/m*3 19.9 C 0 km/h
817 18-06-2010 19:26:02 19.1 C 7.21 g/m*3 19.1 C 0 km/h
818 18-06-2010 19:38:02 18.9 C 7.45 g/m*3 18.9 C 0 km/h
819 18-06-2010 19:50:02 18.9 C 7.61 g/m*3 18.9 C 0 km/h
820 18-06-2010 20:02:02 18.5 C 7.44 g/m*3 18.5 C 0 km/h
821 18-06-2010 20:14:02 18.1 C 7.42 g/m*3 18.1 C 0 km/h
822 18-06-2010 20:26:02 17.8 C 7.59 g/m*3 17.8 C 0 km/h
823 18-06-2010 20:38:02 17.5 C 7.75 g/m*3 17.5 C 0 km/h
824 18-06-2010 20:50:01 17.2 C 7.91 g/m*3 17.2 C 0 km/h
825 18-06-2010 21:02:02 16 C 8.72 g/m*3 16 C 0 km/h
Sensor: Nr:Datum:Temp:Abs-Feuchte:Windchill:Wind:
Aussen-T/F 826 18-06-2010 21:14:02 15 C 9.36 g/m*3 15 C 0 km/h
827 18-06-2010 21:26:01 14.8 C 9.75 g/m*3 14.8 C 0 km/h
828 18-06-2010 21:38:01 14.7 C 9.82 g/m*3 14.7 C 0 km/h
829 18-06-2010 21:50:01 14.6 C 9.89 g/m*3 14.6 C 0 km/h
830 18-06-2010 22:02:01 14.7 C 9.82 g/m*3 14.7 C 0 km/h
831 18-06-2010 22:14:01 14.7 C 9.57 g/m*3 14.7 C 0 km/h
832 18-06-2010 22:26:02 14.8 C 9.5 g/m*3 14.8 C 0 km/h
833 18-06-2010 22:38:01 15 C 9.49 g/m*3 15 C 0 km/h
834 18-06-2010 22:50:02 15.1 C 9.29 g/m*3 15.1 C 0 km/h
835 18-06-2010 23:02:01 15 C 9.23 g/m*3 15 C 0 km/h
836 18-06-2010 23:14:01 14.8 C 8.61 g/m*3 14.8 C 0 km/h
837 18-06-2010 23:27:04 14.8 C 6.84 g/m*3 14.8 C 0 km/h
838 18-06-2010 23:39:04 14.7 C 6.55 g/m*3 14.7 C 0 km/h
839 18-06-2010 23:51:04 14.7 C 6.42 g/m*3 14.7 C 0 km/h

Legende:
   Min
   Max


Maximal/Minimal-Werte vom 12.06.2010 - 18.06.2010

Sensor Min Max Avg
Temp
(Aussen-T/F)
10.5 °C
13-06-2010  06:09:05
30.9 °C
14-06-2010  16:58:01
17.84 °C
Abs-Feuchte
(Aussen-T/F)
4.28 g/m*3
16-06-2010  12:36:01
12.64 g/m*3
12-06-2010  08:32:01
7.88 g/m*3
Windchill
(Aussen-T/F)
10.5 C
13-06-2010  06:09:05
30.9 C
14-06-2010  16:58:01
17.82 C

Die Daten stammen von einer Davis Vantage Pro 2 Wetter-Station und werden unter Linux mit der Software wview2wettercgi und aufbereitet. Alle Angaben erfolgen ohne Gewähr für ihre Vollständigkeit oder Richtigkeit.
Kontakt: Rainer Krienke krienke@uni-koblenz.de . Meine Webseiten an der Uni Koblenz oder privat.
Version: $Revision: 0.78 $